Time;durP1;ratioP1;P1;durP2;ratioP2;P2;SDS_P1;SDS_P2;PMS_P1;PMS_P2;Temp;Humidity;BMP_temperature;BMP_pressure;BME280_temperature;BME280_humidity;BME280_pressure;Samples;Min_cycle;Max_cycle;Signal;HPM_P1;HPM_P2
2022/08/06 00:02:03;;;;;;;;;0.67;0.67;;;;;;;;4956065;28;46109;-74
2022/08/06 00:04:29;;;;;;;;;1.00;0.33;;;;;;;;4956240;28;46141;-74
2022/08/06 00:06:54;;;;;;;;;3.00;1.00;;;;;;;;4963484;28;45330;-74
2022/08/06 00:09:19;;;;;;;;;2.00;0.67;;;;;;;;4956580;28;45275;-73
2022/08/06 00:11:44;;;;;;;;;2.00;1.00;;;;;;;;4955886;28;45353;-73
2022/08/06 00:14:09;;;;;;;;;0.33;0.33;;;;;;;;4964268;28;45267;-73
2022/08/06 00:16:35;;;;;;;;;4.00;2.00;;;;;;;;4966156;28;45314;-73
2022/08/06 00:19:00;;;;;;;;;1.33;1.00;;;;;;;;4956241;28;45366;-73
2022/08/06 00:21:25;;;;;;;;;1.00;1.00;;;;;;;;4956404;28;45667;-73
2022/08/06 00:23:50;;;;;;;;;3.00;1.67;;;;;;;;4956426;28;45586;-73
2022/08/06 00:26:16;;;;;;;;;1.00;0.67;;;;;;;;4956303;28;45427;-73
2022/08/06 00:28:41;;;;;;;;;3.33;1.33;;;;;;;;4956277;28;45405;-74
2022/08/06 00:31:07;;;;;;;;;2.00;1.67;;;;;;;;4955911;28;45584;-73
2022/08/06 00:33:32;;;;;;;;;2.00;2.00;;;;;;;;4956564;28;46720;-73
2022/08/06 00:35:58;;;;;;;;;2.67;1.00;;;;;;;;4959122;28;45428;-74
2022/08/06 00:38:23;;;;;;;;;0.33;0.33;;;;;;;;4959166;28;45291;-74
2022/08/06 00:40:49;;;;;;;;;1.67;0.33;;;;;;;;4959400;28;47405;-74
2022/08/06 00:43:14;;;;;;;;;0.33;0.33;;;;;;;;4954812;28;45462;-74
2022/08/06 00:45:39;;;;;;;;;0.00;0.00;;;;;;;;4951152;28;45429;-74
2022/08/06 00:48:05;;;;;;;;;1.67;1.67;;;;;;;;4958782;28;45365;-74
2022/08/06 00:50:31;;;;;;;;;1.33;1.33;;;;;;;;4959108;28;46223;-74
2022/08/06 00:52:56;;;;;;;;;0.00;0.00;;;;;;;;4959277;28;45453;-74
2022/08/06 00:55:21;;;;;;;;;1.67;0.33;;;;;;;;4959258;28;45388;-74
2022/08/06 00:57:46;;;;;;;;;1.00;1.00;;;;;;;;4959498;28;45436;-74
2022/08/06 01:00:12;;;;;;;;;1.00;1.00;;;;;;;;4958768;28;47170;-73
2022/08/06 01:02:38;;;;;;;;;1.00;1.00;;;;;;;;4959363;28;45979;-74
2022/08/06 01:05:03;;;;;;;;;1.00;1.00;;;;;;;;4958914;28;45378;-74
2022/08/06 01:07:28;;;;;;;;;0.00;0.00;;;;;;;;4959075;28;45325;-74
2022/08/06 01:09:53;;;;;;;;;2.00;2.00;;;;;;;;4958957;28;46953;-74
2022/08/06 01:12:18;;;;;;;;;1.00;1.00;;;;;;;;4959104;28;45580;-73
2022/08/06 01:14:44;;;;;;;;;2.33;2.00;;;;;;;;4958734;28;45266;-74
2022/08/06 01:17:24;;;;;;;;;3.00;1.00;;;;;;;;4959157;28;45383;-74
2022/08/06 01:20:01;;;;;;;;;1.00;1.00;;;;;;;;4958849;28;45426;-73
2022/08/06 01:22:36;;;;;;;;;1.00;1.00;;;;;;;;4958552;28;45240;-74
2022/08/06 01:25:09;;;;;;;;;1.00;1.00;;;;;;;;4958888;28;45345;-74
2022/08/06 01:27:44;;;;;;;;;3.00;1.00;;;;;;;;4952094;28;45464;-73
2022/08/06 01:30:11;;;;;;;;;2.00;1.00;;;;;;;;4958007;28;46168;-74
2022/08/06 01:32:40;;;;;;;;;2.33;1.67;;;;;;;;4957839;28;45476;-73
2022/08/06 01:35:07;;;;;;;;;2.33;1.33;;;;;;;;4958469;28;45309;-73
2022/08/06 01:37:36;;;;;;;;;1.33;1.33;;;;;;;;4957883;28;45425;-74
2022/08/06 01:40:07;;;;;;;;;1.00;0.33;;;;;;;;4958298;28;46508;-74
2022/08/06 01:42:33;;;;;;;;;1.67;1.67;;;;;;;;4954793;28;45437;-73
2022/08/06 01:45:01;;;;;;;;;2.67;1.00;;;;;;;;4957898;28;45466;-73
2022/08/06 01:47:27;;;;;;;;;2.00;1.00;;;;;;;;4958470;28;45508;-74
2022/08/06 01:49:54;;;;;;;;;1.00;0.00;;;;;;;;4958168;28;46077;-73
2022/08/06 01:52:21;;;;;;;;;1.00;1.00;;;;;;;;4958344;28;45385;-74
2022/08/06 01:54:49;;;;;;;;;1.00;1.00;;;;;;;;4958580;28;45535;-73
2022/08/06 01:57:17;;;;;;;;;1.33;1.33;;;;;;;;4958290;28;45414;-73
2022/08/06 01:59:45;;;;;;;;;1.33;1.33;;;;;;;;4957364;28;46286;-74
2022/08/06 02:02:12;;;;;;;;;3.00;0.33;;;;;;;;4953278;28;45433;-74
2022/08/06 02:04:39;;;;;;;;;0.33;0.33;;;;;;;;4951944;28;45444;-73
2022/08/06 02:07:06;;;;;;;;;1.00;1.00;;;;;;;;4957903;28;45376;-73
2022/08/06 02:09:33;;;;;;;;;2.33;1.67;;;;;;;;4958048;28;45410;-73
2022/08/06 02:12:09;;;;;;;;;1.00;1.00;;;;;;;;4957630;28;45365;-73
2022/08/06 02:14:37;;;;;;;;;3.00;2.00;;;;;;;;4949582;28;45438;-74
2022/08/06 02:17:03;;;;;;;;;1.00;1.00;;;;;;;;4950957;28;45474;-73
2022/08/06 02:19:29;;;;;;;;;1.67;1.00;;;;;;;;4957270;28;46054;-74
2022/08/06 02:21:56;;;;;;;;;2.00;2.00;;;;;;;;4958038;28;45394;-73
2022/08/06 02:24:22;;;;;;;;;1.67;1.67;;;;;;;;4957274;28;45403;-73
2022/08/06 02:26:48;;;;;;;;;1.00;1.00;;;;;;;;4957860;28;45362;-73
2022/08/06 02:29:16;;;;;;;;;1.00;1.00;;;;;;;;4956420;28;45385;-73
2022/08/06 02:31:43;;;;;;;;;0.00;0.00;;;;;;;;4957692;28;45191;-73
2022/08/06 02:34:08;;;;;;;;;2.67;2.00;;;;;;;;4957224;28;45323;-74
2022/08/06 02:36:41;;;;;;;;;1.67;1.00;;;;;;;;4957205;28;45423;-73
2022/08/06 02:39:11;;;;;;;;;2.00;2.00;;;;;;;;4957171;28;45598;-73
2022/08/06 02:41:42;;;;;;;;;0.67;0.67;;;;;;;;4956922;28;45371;-73
2022/08/06 02:44:28;;;;;;;;;0.33;0.33;;;;;;;;4957566;28;45327;-73
2022/08/06 02:46:58;;;;;;;;;1.67;1.67;;;;;;;;4957671;28;45380;-73
2022/08/06 02:49:25;;;;;;;;;1.67;1.67;;;;;;;;4956900;28;46140;-73
2022/08/06 02:52:03;;;;;;;;;1.33;1.33;;;;;;;;4957304;28;45372;-73
2022/08/06 02:54:40;;;;;;;;;0.00;0.00;;;;;;;;4957563;28;45331;-73
2022/08/06 02:57:06;;;;;;;;;1.00;1.00;;;;;;;;4956523;28;45421;-73
2022/08/06 02:59:35;;;;;;;;;1.67;1.67;;;;;;;;4957183;28;47191;-73
2022/08/06 03:02:01;;;;;;;;;0.33;0.33;;;;;;;;4943548;28;45452;-74
2022/08/06 03:04:28;;;;;;;;;2.00;1.33;;;;;;;;4957432;28;45374;-73
2022/08/06 03:06:54;;;;;;;;;2.33;1.33;;;;;;;;4956715;28;45437;-73
2022/08/06 03:09:20;;;;;;;;;1.67;1.00;;;;;;;;4956579;28;45315;-73
2022/08/06 03:11:46;;;;;;;;;2.00;1.00;;;;;;;;4956553;28;45308;-73
2022/08/06 03:14:13;;;;;;;;;1.00;1.00;;;;;;;;4957094;28;45296;-73
2022/08/06 03:16:39;;;;;;;;;0.33;0.33;;;;;;;;4956914;28;45352;-73
2022/08/06 03:19:05;;;;;;;;;1.00;1.00;;;;;;;;4956145;28;47100;-72
2022/08/06 03:21:32;;;;;;;;;1.00;1.00;;;;;;;;4956989;28;45303;-73
2022/08/06 03:23:59;;;;;;;;;2.67;1.00;;;;;;;;4971972;28;45394;-73
2022/08/06 03:26:25;;;;;;;;;1.33;1.00;;;;;;;;4956590;28;45336;-73
2022/08/06 03:28:52;;;;;;;;;1.00;1.00;;;;;;;;4956499;28;46273;-73
2022/08/06 03:31:18;;;;;;;;;1.33;1.33;;;;;;;;4956837;28;45311;-73
2022/08/06 03:33:43;;;;;;;;;0.00;0.00;;;;;;;;4956791;28;45288;-73
2022/08/06 03:36:09;;;;;;;;;2.00;2.00;;;;;;;;4955181;28;45557;-73
2022/08/06 03:38:38;;;;;;;;;1.00;1.00;;;;;;;;4956227;28;47185;-73
2022/08/06 03:41:04;;;;;;;;;1.00;1.00;;;;;;;;4956226;28;45408;-73
2022/08/06 03:43:29;;;;;;;;;1.33;1.33;;;;;;;;4956278;28;45345;-73
2022/08/06 03:45:59;;;;;;;;;1.00;1.00;;;;;;;;4956803;28;45407;-73
2022/08/06 03:48:27;;;;;;;;;1.00;1.00;;;;;;;;4956470;28;46048;-73
2022/08/06 03:50:53;;;;;;;;;2.00;2.00;;;;;;;;4956835;28;45765;-74
2022/08/06 03:53:20;;;;;;;;;1.33;1.00;;;;;;;;4956708;28;45365;-73
2022/08/06 03:55:46;;;;;;;;;1.67;1.67;;;;;;;;4956470;28;45413;-73
2022/08/06 03:58:13;;;;;;;;;1.67;1.00;;;;;;;;4956247;28;45357;-73
2022/08/06 04:00:45;;;;;;;;;3.33;1.00;;;;;;;;4955780;28;45366;-74
2022/08/06 04:03:12;;;;;;;;;0.67;0.33;;;;;;;;4956426;28;45303;-74
2022/08/06 04:05:37;;;;;;;;;2.00;2.00;;;;;;;;4956529;28;45283;-73
2022/08/06 04:08:03;;;;;;;;;2.33;1.67;;;;;;;;4955305;28;46118;-73
2022/08/06 04:10:30;;;;;;;;;1.00;1.00;;;;;;;;4959453;28;45373;-73
2022/08/06 04:12:56;;;;;;;;;1.00;1.00;;;;;;;;4959274;28;45409;-73
2022/08/06 04:15:22;;;;;;;;;3.00;1.67;;;;;;;;4959480;28;45371;-74
2022/08/06 04:17:49;;;;;;;;;1.33;0.67;;;;;;;;4959936;28;45434;-74
2022/08/06 04:20:17;;;;;;;;;1.33;1.33;;;;;;;;4959662;28;45384;-73
2022/08/06 04:22:42;;;;;;;;;2.33;1.00;;;;;;;;4958775;28;45585;-73
2022/08/06 04:25:10;;;;;;;;;2.33;2.33;;;;;;;;4958845;28;45544;-74
2022/08/06 04:27:36;;;;;;;;;2.33;2.33;;;;;;;;4959414;28;46265;-73
2022/08/06 04:30:01;;;;;;;;;2.00;1.00;;;;;;;;4958960;28;45315;-74
2022/08/06 04:32:26;;;;;;;;;0.33;0.33;;;;;;;;4955547;28;45314;-73
2022/08/06 04:34:52;;;;;;;;;1.67;1.67;;;;;;;;4959431;28;45434;-74
2022/08/06 04:37:18;;;;;;;;;1.33;1.33;;;;;;;;4958745;28;45596;-74
2022/08/06 04:39:44;;;;;;;;;2.33;0.00;;;;;;;;4959017;28;45445;-74
2022/08/06 04:42:09;;;;;;;;;4.00;1.00;;;;;;;;4958909;28;45486;-74
2022/08/06 04:44:35;;;;;;;;;2.00;1.33;;;;;;;;4957352;28;45413;-74
2022/08/06 04:47:00;;;;;;;;;0.67;0.67;;;;;;;;4959302;28;47264;-74
2022/08/06 04:49:25;;;;;;;;;1.33;1.33;;;;;;;;4958957;28;45251;-74
2022/08/06 04:51:51;;;;;;;;;1.00;1.00;;;;;;;;4959384;28;45418;-74
2022/08/06 04:54:16;;;;;;;;;0.67;0.67;;;;;;;;4958953;28;45398;-73
2022/08/06 04:56:42;;;;;;;;;3.00;1.67;;;;;;;;4959123;28;46435;-73
2022/08/06 04:59:08;;;;;;;;;1.33;0.67;;;;;;;;4959255;28;45220;-73
2022/08/06 05:01:34;;;;;;;;;2.00;0.33;;;;;;;;4959193;28;45433;-73
2022/08/06 05:03:59;;;;;;;;;2.00;2.00;;;;;;;;4967214;28;45615;-74
2022/08/06 05:06:40;;;;;;;;;2.33;1.00;;;;;;;;4965029;28;46240;-83
2022/08/06 05:09:09;;;;;;;;;1.33;0.33;;;;;;;;4953915;28;66942;-84
2022/08/06 05:11:40;;;;;;;;;1.33;1.33;;;;;;;;4954451;28;45382;-79
2022/08/06 05:14:08;;;;;;;;;1.67;1.00;;;;;;;;4951157;28;45441;-80
2022/08/06 05:16:34;;;;;;;;;1.00;1.00;;;;;;;;4953025;28;46330;-83
2022/08/06 05:19:04;;;;;;;;;1.00;1.00;;;;;;;;4954876;28;45288;-80
2022/08/06 05:21:35;;;;;;;;;2.00;2.00;;;;;;;;4952194;28;45323;-80
2022/08/06 05:24:00;;;;;;;;;0.33;0.33;;;;;;;;4948873;28;45477;-78
2022/08/06 05:26:26;;;;;;;;;1.00;1.00;;;;;;;;4954654;28;45853;-74
2022/08/06 05:28:51;;;;;;;;;1.00;1.00;;;;;;;;4949524;28;45807;-74
2022/08/06 05:31:28;;;;;;;;;1.00;1.00;;;;;;;;4953036;28;45399;-74
2022/08/06 05:33:53;;;;;;;;;4.67;2.67;;;;;;;;4954687;28;45380;-74
2022/08/06 05:36:18;;;;;;;;;3.67;2.33;;;;;;;;4952420;28;45309;-74
2022/08/06 05:38:43;;;;;;;;;1.00;1.00;;;;;;;;4951414;28;45497;-74
2022/08/06 05:41:09;;;;;;;;;1.33;1.00;;;;;;;;4954763;28;45485;-74
2022/08/06 05:43:36;;;;;;;;;2.00;2.00;;;;;;;;4955080;28;45452;-75
2022/08/06 05:46:03;;;;;;;;;0.33;0.33;;;;;;;;4953948;28;46191;-74
2022/08/06 05:48:30;;;;;;;;;1.00;1.00;;;;;;;;4951398;28;45363;-73
2022/08/06 05:51:15;;;;;;;;;2.00;2.00;;;;;;;;4954541;28;45529;-74
2022/08/06 05:53:43;;;;;;;;;3.00;1.33;;;;;;;;4956889;28;45970;-75
2022/08/06 05:56:20;;;;;;;;;1.67;1.67;;;;;;;;4957246;28;45645;-74
2022/08/06 05:58:51;;;;;;;;;2.67;2.00;;;;;;;;4956633;28;45348;-73
2022/08/06 06:01:16;;;;;;;;;1.67;1.67;;;;;;;;4948755;28;45493;-74
2022/08/06 06:03:43;;;;;;;;;1.33;1.33;;;;;;;;4953510;28;45414;-73
2022/08/06 06:06:08;;;;;;;;;1.00;1.00;;;;;;;;4948811;28;45501;-74
2022/08/06 06:08:35;;;;;;;;;2.00;1.00;;;;;;;;4949049;28;45489;-73
2022/08/06 06:11:00;;;;;;;;;0.67;0.00;;;;;;;;4949337;28;45359;-76
2022/08/06 06:13:25;;;;;;;;;2.00;2.00;;;;;;;;4956852;28;45359;-77
2022/08/06 06:15:57;;;;;;;;;1.00;1.00;;;;;;;;4957444;28;45347;-78
2022/08/06 06:18:29;;;;;;;;;1.00;1.00;;;;;;;;4957613;28;45423;-78
2022/08/06 06:21:13;;;;;;;;;1.00;1.00;;;;;;;;4957663;28;45703;-78
2022/08/06 06:23:53;;;;;;;;;1.00;1.00;;;;;;;;4958186;28;45339;-77
2022/08/06 06:26:18;;;;;;;;;0.67;0.67;;;;;;;;4957411;28;46017;-77
2022/08/06 06:28:53;;;;;;;;;0.67;0.67;;;;;;;;4957364;28;45454;-78
2022/08/06 06:31:35;;;;;;;;;1.00;1.00;;;;;;;;4957107;28;45587;-78
2022/08/06 06:34:03;;;;;;;;;1.00;1.00;;;;;;;;4957315;28;45500;-78
2022/08/06 06:37:07;;;;;;;;;3.00;1.67;;;;;;;;4957375;28;46411;-78
2022/08/06 06:39:35;;;;;;;;;1.00;1.00;;;;;;;;4974291;28;45442;-78
2022/08/06 06:42:07;;;;;;;;;1.00;1.00;;;;;;;;4972641;28;46163;-79
2022/08/06 06:44:55;;;;;;;;;1.00;1.00;;;;;;;;4971088;28;45417;-79
2022/08/06 06:47:40;;;;;;;;;0.00;0.00;;;;;;;;4975073;28;46177;-79
2022/08/06 06:50:11;;;;;;;;;2.00;1.00;;;;;;;;4974218;28;45462;-79
2022/08/06 06:52:38;;;;;;;;;2.33;1.00;;;;;;;;4975118;28;45431;-79
2022/08/06 06:55:06;;;;;;;;;0.33;0.33;;;;;;;;4974903;28;45427;-79
2022/08/06 06:57:34;;;;;;;;;1.00;1.00;;;;;;;;4974820;28;46342;-79
2022/08/06 07:00:01;;;;;;;;;3.00;1.67;;;;;;;;4974836;28;45378;-78
2022/08/06 07:02:29;;;;;;;;;0.67;0.67;;;;;;;;4974988;28;45441;-78
2022/08/06 07:04:55;;;;;;;;;4.00;2.33;;;;;;;;4974268;28;45315;-78
2022/08/06 07:07:21;;;;;;;;;0.00;0.00;;;;;;;;4973766;28;45409;-78
2022/08/06 07:09:47;;;;;;;;;1.67;0.00;;;;;;;;4958582;28;45370;-78
2022/08/06 07:12:14;;;;;;;;;1.00;1.00;;;;;;;;4956643;28;45357;-77
2022/08/06 07:14:40;;;;;;;;;1.33;0.00;;;;;;;;4969168;28;45388;-78
2022/08/06 07:17:06;;;;;;;;;1.00;1.00;;;;;;;;4958708;28;45667;-78
2022/08/06 07:19:32;;;;;;;;;2.00;1.00;;;;;;;;4956823;28;45504;-78
2022/08/06 07:21:58;;;;;;;;;1.33;1.00;;;;;;;;4957698;28;45426;-78
2022/08/06 07:24:24;;;;;;;;;1.00;1.00;;;;;;;;4957239;28;45442;-78
2022/08/06 07:26:51;;;;;;;;;1.00;1.00;;;;;;;;4956833;28;47079;-78
2022/08/06 07:29:17;;;;;;;;;1.33;0.33;;;;;;;;4955198;28;45398;-79
2022/08/06 07:31:43;;;;;;;;;1.33;1.00;;;;;;;;4957046;28;45287;-78
2022/08/06 07:34:09;;;;;;;;;1.00;1.00;;;;;;;;4957081;28;45434;-78
2022/08/06 07:36:41;;;;;;;;;1.00;1.00;;;;;;;;4956816;28;46215;-77
2022/08/06 07:39:08;;;;;;;;;0.00;0.00;;;;;;;;4956658;28;45374;-78
2022/08/06 07:41:34;;;;;;;;;1.00;1.00;;;;;;;;4948538;28;45462;-78
2022/08/06 07:44:01;;;;;;;;;1.00;1.00;;;;;;;;4957109;28;45461;-77
2022/08/06 07:46:28;;;;;;;;;1.00;1.00;;;;;;;;4956647;28;46207;-78
2022/08/06 07:48:55;;;;;;;;;0.67;0.67;;;;;;;;4956796;28;45323;-78
2022/08/06 07:51:25;;;;;;;;;1.33;1.00;;;;;;;;4956996;28;45340;-77
2022/08/06 07:53:50;;;;;;;;;1.00;1.00;;;;;;;;4956585;28;45475;-77
2022/08/06 07:56:16;;;;;;;;;1.00;1.00;;;;;;;;4969782;28;46080;-78
2022/08/06 07:58:42;;;;;;;;;1.00;1.00;;;;;;;;4952557;28;45375;-79
2022/08/06 08:01:07;;;;;;;;;3.00;0.67;;;;;;;;4949383;28;45322;-79
2022/08/06 08:06:21;;;;;;;;;0.67;0.67;;;;;;;;4956718;28;45779;-78
2022/08/06 08:08:47;;;;;;;;;0.00;0.00;;;;;;;;4950369;28;45434;-78
2022/08/06 08:11:14;;;;;;;;;1.00;1.00;;;;;;;;4948896;28;45177;-78
2022/08/06 08:13:39;;;;;;;;;1.00;1.00;;;;;;;;4956495;28;45287;-78
2022/08/06 08:16:06;;;;;;;;;1.67;1.00;;;;;;;;4956102;28;45981;-78
2022/08/06 08:18:32;;;;;;;;;0.33;0.33;;;;;;;;4956772;28;45459;-78
2022/08/06 08:21:00;;;;;;;;;1.00;0.67;;;;;;;;4956383;28;45390;-77
2022/08/06 08:23:26;;;;;;;;;1.00;1.00;;;;;;;;4956533;28;45550;-78
2022/08/06 08:25:51;;;;;;;;;2.00;0.67;;;;;;;;4956281;28;46092;-79
2022/08/06 08:28:17;;;;;;;;;1.00;1.00;;;;;;;;4956463;28;45382;-78
2022/08/06 08:30:42;;;;;;;;;0.00;0.00;;;;;;;;4956001;28;45425;-79
2022/08/06 08:33:08;;;;;;;;;4.33;1.00;;;;;;;;4956505;28;45430;-78
2022/08/06 08:35:34;;;;;;;;;1.67;1.67;;;;;;;;4955857;28;46077;-78
2022/08/06 08:37:59;;;;;;;;;0.67;0.67;;;;;;;;4955788;28;45251;-79
2022/08/06 08:40:24;;;;;;;;;1.00;1.00;;;;;;;;4956492;28;45363;-79
2022/08/06 08:42:55;;;;;;;;;1.00;1.00;;;;;;;;4955725;28;45311;-78
2022/08/06 08:45:21;;;;;;;;;0.00;0.00;;;;;;;;4956085;28;46222;-78
2022/08/06 08:47:49;;;;;;;;;0.67;0.00;;;;;;;;4952390;28;45356;-78
2022/08/06 08:50:15;;;;;;;;;1.33;1.00;;;;;;;;4956255;28;45306;-78
2022/08/06 08:52:43;;;;;;;;;0.67;0.67;;;;;;;;4956412;28;45381;-79
2022/08/06 08:55:11;;;;;;;;;0.33;0.33;;;;;;;;4957641;28;45418;-78
2022/08/06 08:57:36;;;;;;;;;0.00;0.00;;;;;;;;4959194;28;45446;-78
2022/08/06 09:00:03;;;;;;;;;1.00;0.00;;;;;;;;4959138;28;45428;-78
2022/08/06 09:02:28;;;;;;;;;0.67;0.67;;;;;;;;4959371;28;45375;-78
2022/08/06 09:04:54;;;;;;;;;1.33;1.33;;;;;;;;4959264;28;47105;-78
2022/08/06 09:07:20;;;;;;;;;1.33;1.33;;;;;;;;4958717;28;45379;-78
2022/08/06 09:09:45;;;;;;;;;0.33;0.00;;;;;;;;4959487;28;45382;-77
2022/08/06 09:12:10;;;;;;;;;1.00;1.00;;;;;;;;4958623;28;45453;-77
2022/08/06 09:14:36;;;;;;;;;0.67;0.67;;;;;;;;4958932;28;46195;-77
2022/08/06 09:17:03;;;;;;;;;1.00;1.00;;;;;;;;4959113;28;45341;-78
2022/08/06 09:19:29;;;;;;;;;1.00;1.00;;;;;;;;4959095;28;45406;-77
2022/08/06 09:21:55;;;;;;;;;0.00;0.00;;;;;;;;4959322;28;45453;-78
2022/08/06 09:24:20;;;;;;;;;1.00;1.00;;;;;;;;4959171;28;46372;-78
2022/08/06 09:27:05;;;;;;;;;1.33;1.33;;;;;;;;4958824;28;45304;-78
2022/08/06 09:29:30;;;;;;;;;1.00;1.00;;;;;;;;4958336;28;45382;-77
2022/08/06 09:31:55;;;;;;;;;2.00;0.00;;;;;;;;4959052;28;45461;-78
2022/08/06 09:34:21;;;;;;;;;0.00;0.00;;;;;;;;4958330;28;47050;-78
2022/08/06 09:36:46;;;;;;;;;0.00;0.00;;;;;;;;4958835;28;45278;-78
2022/08/06 09:39:12;;;;;;;;;1.00;1.00;;;;;;;;4958329;28;45459;-79
2022/08/06 09:41:47;;;;;;;;;1.00;1.00;;;;;;;;4946293;28;45299;-78
2022/08/06 09:44:13;;;;;;;;;1.00;1.00;;;;;;;;4958306;28;45396;-78
2022/08/06 09:46:38;;;;;;;;;3.00;1.00;;;;;;;;4954217;28;45354;-79
2022/08/06 09:49:03;;;;;;;;;1.00;0.33;;;;;;;;4950193;28;45345;-78
2022/08/06 09:51:30;;;;;;;;;0.00;0.00;;;;;;;;4958568;28;45568;-78
2022/08/06 09:53:56;;;;;;;;;0.33;0.33;;;;;;;;4958722;28;46254;-78
2022/08/06 09:56:22;;;;;;;;;0.33;0.33;;;;;;;;4958522;28;45386;-78
2022/08/06 09:58:47;;;;;;;;;1.00;1.00;;;;;;;;4958261;28;45327;-78
2022/08/06 10:01:19;;;;;;;;;0.00;0.00;;;;;;;;4958619;28;45298;-78
2022/08/06 10:03:45;;;;;;;;;0.00;0.00;;;;;;;;4945169;28;46244;-78
2022/08/06 10:06:16;;;;;;;;;0.33;0.33;;;;;;;;4957033;28;45342;-79
2022/08/06 10:08:43;;;;;;;;;0.67;0.67;;;;;;;;4957889;28;45368;-79
2022/08/06 10:11:08;;;;;;;;;2.67;0.33;;;;;;;;4947832;28;46355;-78
2022/08/06 10:13:34;;;;;;;;;0.67;0.67;;;;;;;;4956030;28;45977;-77
2022/08/06 10:16:01;;;;;;;;;1.00;1.00;;;;;;;;4958178;28;45330;-78
2022/08/06 10:18:29;;;;;;;;;0.33;0.33;;;;;;;;4958384;28;45320;-78
2022/08/06 10:21:04;;;;;;;;;0.00;0.00;;;;;;;;4958146;28;45523;-78
2022/08/06 10:23:32;;;;;;;;;1.67;1.00;;;;;;;;4957962;28;45435;-78
2022/08/06 10:25:57;;;;;;;;;1.00;1.00;;;;;;;;4957820;28;45319;-77
2022/08/06 10:28:25;;;;;;;;;0.00;0.00;;;;;;;;4957664;28;45464;-79
2022/08/06 10:30:51;;;;;;;;;1.00;0.00;;;;;;;;4957853;28;45461;-78
2022/08/06 10:33:18;;;;;;;;;0.67;0.67;;;;;;;;4957848;28;46000;-78
2022/08/06 10:35:45;;;;;;;;;0.00;0.00;;;;;;;;4957904;28;45432;-79
2022/08/06 10:38:14;;;;;;;;;1.00;0.00;;;;;;;;4952025;28;45339;-78
2022/08/06 10:40:41;;;;;;;;;1.00;1.00;;;;;;;;4949459;28;45303;-79
2022/08/06 10:43:08;;;;;;;;;0.67;0.00;;;;;;;;4971468;28;46260;-78
2022/08/06 10:45:34;;;;;;;;;1.00;0.00;;;;;;;;4957716;28;45764;-78
2022/08/06 10:47:59;;;;;;;;;0.00;0.00;;;;;;;;4959687;28;45727;-77
2022/08/06 10:50:25;;;;;;;;;0.33;0.33;;;;;;;;4946464;28;45522;-78
2022/08/06 10:52:50;;;;;;;;;1.00;1.00;;;;;;;;4957691;28;46130;-78
2022/08/06 10:55:16;;;;;;;;;0.00;0.00;;;;;;;;4957579;28;45398;-77
2022/08/06 10:57:42;;;;;;;;;1.67;0.33;;;;;;;;4957728;28;45379;-78
2022/08/06 11:00:08;;;;;;;;;0.67;0.67;;;;;;;;4957399;28;45432;-78
2022/08/06 11:02:42;;;;;;;;;0.00;0.00;;;;;;;;4956735;28;46295;-79
2022/08/06 11:05:11;;;;;;;;;0.00;0.00;;;;;;;;4956968;28;45387;-79
2022/08/06 11:07:55;;;;;;;;;0.00;0.00;;;;;;;;4957278;28;45415;-78
2022/08/06 11:10:29;;;;;;;;;0.00;0.00;;;;;;;;4970529;28;45366;-78
2022/08/06 11:13:05;;;;;;;;;0.67;0.00;;;;;;;;4957100;28;46435;-78
2022/08/06 11:15:37;;;;;;;;;0.00;0.00;;;;;;;;4957126;28;45365;-79
2022/08/06 11:18:06;;;;;;;;;0.00;0.00;;;;;;;;4956837;28;45338;-78
2022/08/06 11:20:31;;;;;;;;;0.00;0.00;;;;;;;;4957285;28;45393;-79
2022/08/06 11:22:57;;;;;;;;;0.33;0.33;;;;;;;;4957369;28;46170;-79
2022/08/06 11:25:39;;;;;;;;;0.00;0.00;;;;;;;;4956954;28;45243;-79
2022/08/06 11:28:04;;;;;;;;;1.00;1.00;;;;;;;;4957545;28;45393;-78
2022/08/06 11:30:55;;;;;;;;;1.00;1.00;;;;;;;;4956857;28;45282;-78
2022/08/06 11:33:41;;;;;;;;;0.00;0.00;;;;;;;;4944361;28;46269;-77
2022/08/06 11:36:12;;;;;;;;;0.00;0.00;;;;;;;;4956470;28;45228;-78
2022/08/06 11:38:46;;;;;;;;;0.00;0.00;;;;;;;;4947215;28;45365;-77
2022/08/06 11:41:14;;;;;;;;;0.00;0.00;;;;;;;;4953692;28;45276;-78
2022/08/06 11:43:40;;;;;;;;;1.00;0.00;;;;;;;;4956246;28;46119;-77
2022/08/06 11:46:18;;;;;;;;;3.00;0.00;;;;;;;;4956165;28;45489;-77
2022/08/06 11:48:58;;;;;;;;;0.33;0.33;;;;;;;;4945942;28;45365;-78
2022/08/06 11:51:56;;;;;;;;;0.00;0.00;;;;;;;;4956695;28;45402;-77
2022/08/06 11:54:27;;;;;;;;;0.33;0.33;;;;;;;;4953572;28;46368;-77
2022/08/06 11:57:02;;;;;;;;;0.33;0.33;;;;;;;;4954481;28;45589;-77
2022/08/06 11:59:28;;;;;;;;;1.00;1.00;;;;;;;;4954453;28;45292;-78
2022/08/06 12:01:53;;;;;;;;;0.33;0.33;;;;;;;;4953977;28;45448;-78
2022/08/06 12:04:38;;;;;;;;;0.00;0.00;;;;;;;;4954283;28;47019;-78
2022/08/06 12:07:18;;;;;;;;;0.00;0.00;;;;;;;;4968287;28;45447;-77
2022/08/06 12:09:45;;;;;;;;;0.00;0.00;;;;;;;;4952030;28;45344;-77
2022/08/06 12:12:28;;;;;;;;;0.00;0.00;;;;;;;;4932305;28;45668;-78
2022/08/06 12:14:55;;;;;;;;;0.33;0.33;;;;;;;;4961800;28;46108;-77
2022/08/06 12:17:21;;;;;;;;;0.00;0.00;;;;;;;;4935971;28;45634;-77
2022/08/06 12:19:47;;;;;;;;;0.00;0.00;;;;;;;;4965929;28;45367;-78
2022/08/06 12:22:16;;;;;;;;;0.00;0.00;;;;;;;;4950319;28;45526;-77
2022/08/06 12:24:45;;;;;;;;;1.00;1.00;;;;;;;;4954252;28;46204;-77
2022/08/06 12:27:11;;;;;;;;;1.00;1.00;;;;;;;;4954112;28;45403;-78
2022/08/06 12:29:37;;;;;;;;;1.00;0.33;;;;;;;;4949700;28;45822;-77
2022/08/06 12:32:24;;;;;;;;;0.00;0.00;;;;;;;;4960089;28;45466;-77
2022/08/06 12:34:51;;;;;;;;;0.00;0.00;;;;;;;;4958658;28;46200;-77
2022/08/06 12:37:16;;;;;;;;;0.00;0.00;;;;;;;;4959173;28;45407;-77
2022/08/06 12:42:26;;;;;;;;;0.00;0.00;;;;;;;;4959385;28;45626;-77
2022/08/06 12:44:52;;;;;;;;;0.00;0.00;;;;;;;;4959085;28;46275;-78
2022/08/06 12:47:17;;;;;;;;;2.67;1.00;;;;;;;;4959858;28;45411;-78
2022/08/06 12:49:42;;;;;;;;;1.00;0.00;;;;;;;;4958764;28;45603;-78
2022/08/06 12:52:16;;;;;;;;;0.00;0.00;;;;;;;;4959457;28;45402;-78
2022/08/06 12:54:42;;;;;;;;;0.00;0.00;;;;;;;;4959322;28;46413;-78
2022/08/06 12:57:07;;;;;;;;;0.33;0.33;;;;;;;;4959597;28;45434;-77
2022/08/06 12:59:33;;;;;;;;;2.00;0.00;;;;;;;;4959528;28;45469;-78
2022/08/06 13:01:58;;;;;;;;;0.00;0.00;;;;;;;;4958875;28;45361;-79
2022/08/06 13:04:24;;;;;;;;;0.67;0.00;;;;;;;;4958156;28;46220;-78
2022/08/06 13:06:50;;;;;;;;;0.00;0.00;;;;;;;;4959067;28;45314;-78
2022/08/06 13:09:16;;;;;;;;;1.67;0.00;;;;;;;;4959710;28;45369;-77
2022/08/06 13:11:41;;;;;;;;;0.00;0.00;;;;;;;;4959498;28;45282;-78
2022/08/06 13:14:07;;;;;;;;;0.00;0.00;;;;;;;;4958994;28;45437;-78
2022/08/06 13:16:43;;;;;;;;;0.00;0.00;;;;;;;;4959097;28;45685;-78
2022/08/06 13:19:13;;;;;;;;;0.33;0.00;;;;;;;;4959195;28;45290;-77
2022/08/06 13:21:39;;;;;;;;;0.00;0.00;;;;;;;;4958264;28;45237;-77
2022/08/06 13:24:05;;;;;;;;;0.00;0.00;;;;;;;;4958720;28;46192;-77
2022/08/06 13:26:31;;;;;;;;;0.00;0.00;;;;;;;;4959057;28;45313;-78
2022/08/06 13:29:11;;;;;;;;;1.00;0.00;;;;;;;;4959027;28;45412;-77
2022/08/06 13:31:40;;;;;;;;;0.00;0.00;;;;;;;;4958908;28;45466;-78
2022/08/06 13:34:24;;;;;;;;;0.00;0.00;;;;;;;;4958296;28;47022;-77
2022/08/06 13:36:53;;;;;;;;;0.33;0.33;;;;;;;;4958589;28;45441;-76
2022/08/06 13:39:18;;;;;;;;;1.00;1.00;;;;;;;;4958218;28;45470;-77
2022/08/06 13:41:44;;;;;;;;;1.00;1.00;;;;;;;;4958381;28;45502;-77
2022/08/06 13:44:25;;;;;;;;;1.00;1.00;;;;;;;;4958852;28;45319;-77
2022/08/06 13:46:51;;;;;;;;;0.00;0.00;;;;;;;;4958696;28;45470;-77
2022/08/06 13:49:16;;;;;;;;;0.00;0.00;;;;;;;;4956963;28;45509;-78
2022/08/06 13:51:41;;;;;;;;;0.00;0.00;;;;;;;;4953576;28;45339;-77
2022/08/06 13:54:07;;;;;;;;;0.00;0.00;;;;;;;;4951260;28;47018;-78
2022/08/06 13:56:32;;;;;;;;;0.00;0.00;;;;;;;;4958743;28;45327;-77
2022/08/06 13:58:58;;;;;;;;;1.00;1.00;;;;;;;;4961300;28;45378;-77
2022/08/06 14:01:23;;;;;;;;;1.00;1.00;;;;;;;;4958439;28;45432;-78
2022/08/06 14:03:48;;;;;;;;;0.00;0.00;;;;;;;;4953297;28;46934;-78
2022/08/06 14:06:13;;;;;;;;;1.00;1.00;;;;;;;;4951401;28;45341;-77
2022/08/06 14:08:38;;;;;;;;;0.00;0.00;;;;;;;;4957835;28;45347;-78
2022/08/06 14:11:04;;;;;;;;;0.67;0.00;;;;;;;;4958697;28;45346;-76
2022/08/06 14:13:29;;;;;;;;;0.00;0.00;;;;;;;;4957493;28;46187;-77
2022/08/06 14:15:54;;;;;;;;;0.00;0.00;;;;;;;;4958144;28;45453;-77
2022/08/06 14:18:21;;;;;;;;;1.00;0.00;;;;;;;;4958021;28;45444;-76
2022/08/06 14:20:46;;;;;;;;;0.00;0.00;;;;;;;;4959799;28;45382;-77
2022/08/06 14:23:12;;;;;;;;;0.00;0.00;;;;;;;;4969302;28;47165;-77
2022/08/06 14:25:38;;;;;;;;;0.33;0.33;;;;;;;;4971637;28;45441;-78
2022/08/06 14:28:03;;;;;;;;;0.00;0.00;;;;;;;;4957873;28;45223;-77
2022/08/06 14:30:29;;;;;;;;;1.00;1.00;;;;;;;;4957163;28;45350;-77
2022/08/06 14:32:54;;;;;;;;;1.00;1.00;;;;;;;;4956909;28;45342;-77
2022/08/06 14:35:20;;;;;;;;;0.00;0.00;;;;;;;;4958084;28;45345;-78
2022/08/06 14:37:45;;;;;;;;;0.00;0.00;;;;;;;;4956840;28;45374;-77
2022/08/06 14:40:11;;;;;;;;;0.00;0.00;;;;;;;;4957998;28;45411;-78
2022/08/06 14:45:20;;;;;;;;;0.00;0.00;;;;;;;;4957799;28;45291;-78
2022/08/06 14:47:46;;;;;;;;;0.00;0.00;;;;;;;;4957642;28;45335;-78
2022/08/06 14:50:11;;;;;;;;;0.00;0.00;;;;;;;;4952360;28;45677;-78
2022/08/06 14:52:36;;;;;;;;;0.00;0.00;;;;;;;;4956349;28;46308;-78
2022/08/06 14:55:01;;;;;;;;;0.00;0.00;;;;;;;;4961869;28;45420;-77
2022/08/06 14:57:27;;;;;;;;;1.00;0.00;;;;;;;;4967491;28;45276;-76